createdAt,value
2019-03-23T00:02:06.055Z,45.97
2019-03-23T00:07:10.426Z,45.55
2019-03-23T00:12:14.748Z,46.15
2019-03-23T00:17:19.141Z,45.58
2019-03-23T00:22:23.637Z,46.06
2019-03-23T00:27:27.967Z,45.82
2019-03-23T00:32:32.400Z,45.82
2019-03-23T00:37:36.816Z,45.56
2019-03-23T00:42:41.148Z,45.55
2019-03-23T00:47:45.563Z,45.55
2019-03-23T00:52:49.866Z,46.11
2019-03-23T00:57:54.267Z,45.50
2019-03-23T01:02:58.639Z,45.96
2019-03-23T01:08:03.095Z,46.17
2019-03-23T01:13:07.422Z,46.17
2019-03-23T01:18:11.791Z,46.37
2019-03-23T01:23:16.110Z,46.37
2019-03-23T01:28:20.418Z,46.22
2019-03-23T01:33:24.751Z,46.46
2019-03-23T01:38:29.214Z,46.37
2019-03-23T01:43:33.537Z,46.49
2019-03-23T01:48:37.833Z,46.49
2019-03-23T01:53:42.148Z,46.34
2019-03-23T01:58:48.779Z,46.34
2019-03-23T02:03:53.125Z,46.59
2019-03-23T02:08:57.461Z,46.71
2019-03-23T02:14:01.812Z,46.71
2019-03-23T02:19:06.127Z,46.47
2019-03-23T02:24:10.477Z,47.03
2019-03-23T02:29:14.808Z,46.37
2019-03-23T02:34:19.135Z,46.93
2019-03-23T02:39:23.485Z,47.14
2019-03-23T02:44:27.809Z,47.14
2019-03-23T02:49:32.167Z,46.71
2019-03-23T02:54:36.543Z,46.86
2019-03-23T02:59:41.013Z,47.09
2019-03-23T03:04:45.400Z,46.77
2019-03-23T03:09:49.721Z,46.96
2019-03-23T03:14:54.014Z,47.24
2019-03-23T03:19:58.365Z,46.59
2019-03-23T03:25:03.007Z,46.88
2019-03-23T03:30:09.221Z,46.88
2019-03-23T03:35:13.728Z,46.93
2019-03-23T03:40:18.061Z,47.00
2019-03-23T03:45:26.111Z,47.40
2019-03-23T03:50:30.512Z,46.97
2019-03-23T03:55:34.952Z,47.46
2019-03-23T04:00:39.303Z,47.03
2019-03-23T04:05:43.630Z,46.99
2019-03-23T04:10:47.960Z,47.15
2019-03-23T04:15:52.287Z,47.16
2019-03-23T04:20:56.623Z,47.22
2019-03-23T04:26:00.973Z,47.55
2019-03-23T04:31:05.277Z,46.98
2019-03-23T04:36:09.584Z,46.98
2019-03-23T04:41:13.888Z,47.13
2019-03-23T04:46:18.189Z,47.13
2019-03-23T04:51:22.553Z,47.17
2019-03-23T04:56:26.842Z,47.16
2019-03-23T05:01:31.210Z,47.16
2019-03-23T05:06:35.736Z,47.50
2019-03-23T05:11:40.077Z,47.42
2019-03-23T05:16:44.530Z,47.96
2019-03-23T05:21:48.862Z,47.41
2019-03-23T05:26:53.207Z,47.41
2019-03-23T05:31:57.520Z,47.80
2019-03-23T05:37:01.810Z,47.31
2019-03-23T05:42:06.101Z,47.44
2019-03-23T05:47:10.428Z,47.44
2019-03-23T05:52:14.770Z,47.97
2019-03-23T05:57:19.918Z,47.58
2019-03-23T06:02:24.390Z,48.13
2019-03-23T06:07:28.683Z,48.13
2019-03-23T06:12:32.977Z,47.66
2019-03-23T06:17:37.364Z,47.97
2019-03-23T06:22:42.407Z,48.24
2019-03-23T06:27:46.712Z,47.41
2019-03-23T06:32:51.088Z,47.48
2019-03-23T06:37:55.442Z,47.89
2019-03-23T06:43:00.149Z,47.56
2019-03-23T06:48:04.813Z,47.64
2019-03-23T06:53:10.302Z,47.99
2019-03-23T06:58:14.599Z,48.11
2019-03-23T07:03:18.925Z,47.81
2019-03-23T07:08:31.576Z,48.21
2019-03-23T07:13:29.266Z,47.85
2019-03-23T07:18:33.602Z,47.85
2019-03-23T07:23:37.899Z,48.11
2019-03-23T07:28:42.197Z,48.14
2019-03-23T07:33:46.515Z,48.14
2019-03-23T07:38:50.845Z,47.63
2019-03-23T07:43:55.232Z,48.11
2019-03-23T07:48:59.536Z,48.11
2019-03-23T07:54:03.862Z,48.42
2019-03-23T07:59:08.410Z,40.17
2019-03-23T08:04:12.817Z,40.43
2019-03-23T08:09:20.759Z,40.43
2019-03-23T08:14:23.165Z,40.41
2019-03-23T08:19:27.502Z,40.79
2019-03-23T08:24:31.827Z,40.79
2019-03-23T08:29:36.136Z,41.45
2019-03-23T08:34:40.467Z,42.71
2019-03-23T08:39:48.758Z,42.71
2019-03-23T08:44:50.861Z,42.99
2019-03-23T08:49:55.167Z,43.15
2019-03-23T08:54:59.505Z,43.15
2019-03-23T09:05:22.317Z,43.94
2019-03-23T09:10:26.630Z,43.60
2019-03-23T09:15:30.933Z,43.95
2019-03-23T09:20:35.314Z,43.55
2019-03-23T09:25:39.616Z,43.55
2019-03-23T09:30:43.945Z,43.90
2019-03-23T09:35:48.255Z,43.90
2019-03-23T09:40:52.572Z,43.80
2019-03-23T09:45:56.943Z,43.73
2019-03-23T09:51:01.268Z,43.86
2019-03-23T09:56:05.710Z,44.32
2019-03-23T10:01:10.033Z,42.94
2019-03-23T10:06:14.354Z,42.65
2019-03-23T10:11:18.723Z,42.65
2019-03-23T10:16:23.049Z,43.33
2019-03-23T10:21:27.419Z,43.33
2019-03-23T10:26:31.872Z,42.64
2019-03-23T10:31:36.281Z,42.64
2019-03-23T10:36:40.702Z,42.60
2019-03-23T10:41:45.011Z,42.60
2019-03-23T10:46:49.328Z,42.70
2019-03-23T10:51:53.673Z,42.10
2019-03-23T10:56:58.173Z,42.10
2019-03-23T11:02:02.505Z,42.04
2019-03-23T11:07:06.847Z,42.04
2019-03-23T11:12:11.206Z,41.85
2019-03-23T11:17:17.540Z,41.85
2019-03-23T11:22:21.846Z,41.93
2019-03-23T11:27:26.166Z,41.93
2019-03-23T11:32:30.512Z,43.47
2019-03-23T11:37:35.016Z,43.97
2019-03-23T11:42:49.382Z,44.65
2019-03-23T11:47:45.456Z,45.31
2019-03-23T11:52:49.770Z,45.31
2019-03-23T11:57:54.087Z,44.89
2019-03-23T12:02:58.474Z,44.89
2019-03-23T12:08:02.854Z,45.10
2019-03-23T12:13:07.150Z,44.88
2019-03-23T12:18:11.476Z,44.88
2019-03-23T12:23:15.783Z,44.59
2019-03-23T12:28:20.095Z,44.58
2019-03-23T12:33:24.506Z,44.58
2019-03-23T12:38:28.892Z,44.51
2019-03-23T12:43:33.226Z,40.37
2019-03-23T12:48:37.554Z,40.37
2019-03-23T13:27:15.134Z,39.89
2019-03-23T13:32:19.428Z,39.86
2019-03-23T13:37:23.716Z,40.00
2019-03-23T13:42:28.076Z,40.07
2019-03-23T13:47:34.494Z,40.58
2019-03-23T13:52:38.429Z,40.14
2019-03-23T13:57:42.745Z,40.54
2019-03-23T14:02:47.082Z,40.63
2019-03-23T14:07:51.417Z,40.84
2019-03-23T14:12:55.704Z,40.83
2019-03-23T14:18:00.018Z,40.83
2019-03-23T14:23:04.343Z,41.03
2019-03-23T14:28:08.658Z,41.54
2019-03-23T14:33:12.962Z,41.54
2019-03-23T15:05:31.610Z,42.40
2019-03-23T15:10:35.935Z,42.17
2019-03-23T15:15:40.303Z,42.15
2019-03-23T15:20:44.627Z,42.58
2019-03-23T15:25:49.000Z,43.06
2019-03-23T15:30:53.299Z,43.06
2019-03-23T15:35:57.673Z,42.56
2019-03-23T15:41:02.015Z,42.83
2019-03-23T15:46:06.346Z,42.89
2019-03-23T15:51:10.641Z,42.89
2019-03-23T15:56:14.989Z,42.38
2019-03-23T16:01:19.299Z,42.66
2019-03-23T16:06:23.750Z,42.38
2019-03-23T16:11:28.153Z,42.93
2019-03-23T16:16:32.508Z,42.69
2019-03-23T16:21:36.852Z,42.72
2019-03-23T16:26:41.164Z,42.90
2019-03-23T16:31:45.509Z,42.90
2019-03-23T16:36:49.879Z,42.37
2019-03-23T16:41:54.189Z,42.48
2019-03-23T16:46:58.513Z,43.08
2019-03-23T16:52:02.848Z,43.03
2019-03-23T16:57:07.168Z,43.29
2019-03-23T17:02:11.474Z,43.29
2019-03-23T17:07:15.769Z,43.27
2019-03-23T17:12:20.084Z,42.42
2019-03-23T17:17:24.476Z,41.52
2019-03-23T17:22:28.781Z,41.52
2019-03-23T17:27:33.091Z,40.88
2019-03-23T17:32:37.939Z,41.33
2019-03-23T17:37:42.412Z,41.79
2019-03-23T17:42:46.751Z,42.18
2019-03-23T17:47:51.084Z,41.82
2019-03-23T17:52:55.412Z,41.82
2019-03-23T17:57:59.685Z,43.28
2019-03-23T18:03:04.008Z,43.52
2019-03-23T18:08:08.310Z,44.22
2019-03-23T18:13:16.788Z,44.22
2019-03-23T18:18:18.739Z,44.99
2019-03-23T18:23:23.027Z,44.69
2019-03-23T18:28:27.343Z,44.69
2019-03-23T18:33:31.638Z,45.28
2019-03-23T18:38:36.067Z,45.44
2019-03-23T18:43:40.419Z,45.65
2019-03-23T18:48:44.738Z,45.65
2019-03-23T18:53:49.035Z,45.42
2019-03-23T18:58:53.352Z,45.10
2019-03-23T19:03:57.926Z,44.39
2019-03-23T19:09:02.240Z,44.39
2019-03-23T19:14:06.585Z,45.11
2019-03-23T19:19:10.929Z,44.72
2019-03-23T19:24:15.240Z,45.05
2019-03-23T19:29:19.580Z,45.05
2019-03-23T19:34:23.896Z,44.43
2019-03-23T19:39:28.271Z,45.17
2019-03-23T19:44:32.595Z,45.17
2019-03-23T19:49:36.921Z,45.20
2019-03-23T19:54:41.239Z,45.16
2019-03-23T19:59:45.654Z,45.19
2019-03-23T20:04:49.959Z,45.19
2019-03-23T20:09:54.257Z,45.11
2019-03-23T20:14:58.560Z,44.85
2019-03-23T20:20:02.894Z,44.85
2019-03-23T20:25:07.239Z,45.26
2019-03-23T20:30:11.709Z,45.19
2019-03-23T20:35:16.028Z,45.25
2019-03-23T20:40:20.410Z,45.25
2019-03-23T20:45:29.543Z,44.80
2019-03-23T20:50:33.848Z,44.80
2019-03-23T20:55:38.139Z,44.73
2019-03-23T21:00:42.534Z,45.73
2019-03-23T21:05:46.907Z,45.73
2019-03-23T21:10:51.305Z,45.72
2019-03-23T21:15:55.594Z,46.08
2019-03-23T21:20:59.975Z,46.23
2019-03-23T21:26:04.343Z,45.97
2019-03-23T21:31:08.648Z,46.27
2019-03-23T21:36:12.944Z,46.19
2019-03-23T21:41:17.233Z,46.19
2019-03-23T21:46:21.531Z,45.80
2019-03-23T21:51:25.865Z,46.17
2019-03-23T21:56:30.160Z,46.04
2019-03-23T22:01:34.453Z,46.04
2019-03-23T22:06:38.754Z,46.12
2019-03-23T22:11:43.041Z,45.71
2019-03-23T22:16:47.339Z,46.19
2019-03-23T22:21:51.628Z,45.94
2019-03-23T22:26:55.919Z,45.99
2019-03-23T22:32:00.239Z,45.95
2019-03-23T22:37:04.528Z,45.95
2019-03-23T22:42:08.846Z,46.27
2019-03-23T22:47:13.192Z,45.99
2019-03-23T22:52:17.587Z,46.09
2019-03-23T22:57:21.896Z,46.09
2019-03-23T23:02:26.601Z,46.38
2019-03-23T23:07:30.971Z,46.29
2019-03-23T23:12:35.291Z,46.34
2019-03-23T23:17:39.677Z,46.34
2019-03-23T23:22:43.999Z,45.58
2019-03-23T23:27:48.395Z,45.58
2019-03-23T23:32:52.742Z,46.63
2019-03-23T23:37:57.067Z,46.95
2019-03-23T23:43:01.391Z,46.68
2019-03-23T23:48:05.801Z,46.43
2019-03-23T23:53:10.143Z,46.66
2019-03-23T23:58:14.475Z,46.12
